createdAt,value
2019-05-02T00:00:09.853Z,-21419.45
2019-05-02T00:02:38.534Z,-21433.08
2019-05-02T00:05:09.705Z,-21428.30
2019-05-02T00:07:38.545Z,-21429.85
2019-05-02T00:10:09.816Z,-21434.76
2019-05-02T00:12:38.174Z,-21431.11
2019-05-02T00:15:08.165Z,-21434.76
2019-05-02T00:17:36.431Z,-21447.53
2019-05-02T00:20:08.821Z,-21437.29
2019-05-02T00:22:38.114Z,-21433.08
2019-05-02T00:25:10.998Z,-21433.64
2019-05-02T00:27:38.938Z,-21447.53
2019-05-02T00:30:09.175Z,-21451.74
2019-05-02T00:32:37.452Z,-21447.11
2019-05-02T00:35:06.721Z,-21451.46
2019-05-02T00:37:35.088Z,-21447.67
2019-05-02T00:40:06.285Z,-21437.57
2019-05-02T00:42:35.598Z,-21440.80
2019-05-02T00:45:04.745Z,-21449.64
2019-05-02T00:47:42.203Z,-21433.36
2019-05-02T00:50:12.484Z,-21426.62
2019-05-02T00:52:40.840Z,-21430.27
2019-05-02T00:55:09.173Z,-21430.13
2019-05-02T00:57:37.567Z,-21428.30
2019-05-02T01:00:06.480Z,-21428.30
2019-05-02T01:02:49.141Z,-21429.29
2019-05-02T01:05:19.493Z,-21421.56
2019-05-02T01:07:48.918Z,-21419.03
2019-05-02T01:10:21.231Z,-21419.03
2019-05-02T01:12:49.137Z,-21416.22
2019-05-02T01:15:17.525Z,-21425.64
2019-05-02T01:17:52.727Z,-21422.82
2019-05-02T01:20:22.289Z,-21416.08
2019-05-02T01:22:53.534Z,-21420.15
2019-05-02T01:25:21.819Z,-21423.11
2019-05-02T01:27:57.423Z,-21423.81
2019-05-02T01:30:43.817Z,-21419.45
2019-05-02T01:33:19.501Z,-21411.16
2019-05-02T01:35:49.418Z,-21416.08
2019-05-02T01:38:26.461Z,-21413.13
2019-05-02T01:40:54.690Z,-21418.05
2019-05-02T01:43:25.688Z,-21400.34
2019-05-02T01:45:54.199Z,-21398.37
2019-05-02T01:48:23.723Z,-21398.51
2019-05-02T01:50:53.892Z,-21380.50
2019-05-02T01:53:22.552Z,-21414.82
2019-05-02T01:55:56.882Z,-21424.94
2019-05-02T01:58:23.055Z,-21405.82
2019-05-02T02:00:51.324Z,-21405.96
2019-05-02T02:03:19.684Z,-21398.66
2019-05-02T02:05:48.071Z,-21401.32
2019-05-02T02:08:16.347Z,-21387.54
2019-05-02T02:10:44.636Z,-21401.32
2019-05-02T02:13:12.889Z,-21395.55
2019-05-02T02:15:41.183Z,-21373.04
2019-05-02T02:18:09.464Z,-21382.75
2019-05-02T02:20:49.013Z,-21385.99
2019-05-02T02:23:25.874Z,-21384.30
2019-05-02T02:25:55.791Z,-21382.19
2019-05-02T02:28:25.090Z,-21375.71
2019-05-02T02:30:57.793Z,-21371.35
2019-05-02T02:33:23.371Z,-21383.60
2019-05-02T02:35:52.185Z,-21388.80
2019-05-02T02:38:20.502Z,-21391.34
2019-05-02T02:40:49.766Z,-21410.04
2019-05-02T02:43:33.339Z,-21402.45
2019-05-02T02:46:02.817Z,-21399.36
2019-05-02T02:48:33.516Z,-21390.07
2019-05-02T02:51:01.971Z,-21383.60
2019-05-02T02:53:30.411Z,-21379.66
2019-05-02T02:56:03.930Z,-21376.98
2019-05-02T02:58:44.251Z,-21371.07
2019-05-02T03:01:03.020Z,-21383.88
2019-05-02T03:03:34.951Z,-21385.57
2019-05-02T03:06:05.579Z,-21381.91
2019-05-02T03:08:31.392Z,-21382.75
2019-05-02T03:11:00.124Z,-21351.49
2019-05-02T03:13:30.134Z,-21375.71
2019-05-02T03:16:14.793Z,-21387.82
2019-05-02T03:18:43.443Z,-21381.91
2019-05-02T03:21:13.480Z,-21389.09
2019-05-02T03:23:42.768Z,-21394.57
2019-05-02T03:26:14.973Z,-21378.67
2019-05-02T03:28:41.116Z,-21369.52
2019-05-02T03:31:24.402Z,-21371.78
2019-05-02T03:33:53.708Z,-21359.10
2019-05-02T03:36:25.845Z,-21343.87
2019-05-02T03:38:40.968Z,-21358.39
2019-05-02T03:41:13.667Z,-21353.04
2019-05-02T03:43:40.804Z,-21359.10
2019-05-02T03:46:13.557Z,-21354.73
2019-05-02T03:48:39.228Z,-21365.86
2019-05-02T03:51:19.903Z,-21376.98
2019-05-02T03:53:37.674Z,-21365.43
2019-05-02T03:56:11.672Z,-21365.57
2019-05-02T03:58:36.276Z,-21366.84
2019-05-02T04:01:04.758Z,-21357.27
2019-05-02T04:03:33.882Z,-21364.45
2019-05-02T04:06:03.123Z,-21352.90
2019-05-02T04:08:31.530Z,-21367.55
2019-05-02T04:11:15.112Z,-21361.63
2019-05-02T04:13:43.456Z,-21363.32
2019-05-02T04:16:15.380Z,-21368.11
2019-05-02T04:18:41.888Z,-21355.29
2019-05-02T04:21:10.406Z,-21364.59
2019-05-02T04:23:38.740Z,-21362.90
2019-05-02T04:26:12.693Z,-21357.97
2019-05-02T04:28:38.354Z,-21355.44
2019-05-02T04:31:08.599Z,-21369.09
2019-05-02T04:33:36.888Z,-21367.41
2019-05-02T04:36:13.468Z,-21356.00
2019-05-02T04:38:46.573Z,-21362.34
2019-05-02T04:41:09.295Z,-21351.91
2019-05-02T04:43:43.109Z,-21347.97
2019-05-02T04:46:12.100Z,-21345.00
2019-05-02T04:48:44.276Z,-21341.20
2019-05-02T04:51:14.190Z,-21348.95
2019-05-02T04:53:42.283Z,-21356.42
2019-05-02T04:56:10.601Z,-21348.39
2019-05-02T04:58:40.693Z,-21339.08
2019-05-02T05:01:10.117Z,-21350.50
2019-05-02T05:03:40.567Z,-21348.11
2019-05-02T05:06:12.241Z,-21355.86
2019-05-02T05:08:41.559Z,-21349.23
2019-05-02T05:11:08.872Z,-21359.52
2019-05-02T05:13:37.550Z,-21375.30
2019-05-02T05:16:08.639Z,-21381.63
2019-05-02T05:18:38.021Z,-21378.96
2019-05-02T05:21:10.335Z,-21360.79
2019-05-02T05:23:38.274Z,-21365.01
2019-05-02T05:26:07.300Z,-21368.82
2019-05-02T05:28:40.550Z,-21391.76
2019-05-02T05:31:07.656Z,-21393.87
2019-05-02T05:33:37.786Z,-21376.42
2019-05-02T05:36:08.419Z,-21392.60
2019-05-02T05:38:40.463Z,-21371.92
2019-05-02T05:41:09.059Z,-21372.62
2019-05-02T05:43:39.274Z,-21375.71
2019-05-02T05:46:12.334Z,-21371.92
2019-05-02T05:48:40.805Z,-21383.32
2019-05-02T05:51:11.842Z,-21376.00
2019-05-02T05:53:37.702Z,-21359.38
2019-05-02T05:56:07.950Z,-21362.48
2019-05-02T05:58:39.865Z,-21378.82
2019-05-02T06:01:10.122Z,-21369.66
2019-05-02T06:03:41.998Z,-21354.03
2019-05-02T06:06:10.024Z,-21345.86
2019-05-02T06:08:37.856Z,-21358.95
2019-05-02T06:11:06.493Z,-21345.29
2019-05-02T06:13:36.559Z,-21345.29
2019-05-02T06:16:04.867Z,-21337.25
2019-05-02T06:18:36.235Z,-21352.48
2019-05-02T06:21:08.574Z,-21349.66
2019-05-02T06:23:36.391Z,-21366.42
2019-05-02T06:26:08.024Z,-21370.08
2019-05-02T06:28:36.339Z,-21361.63
2019-05-02T06:31:07.249Z,-21359.38
2019-05-02T06:33:34.454Z,-21374.31
2019-05-02T06:36:04.090Z,-21363.89
2019-05-02T06:38:33.469Z,-21359.52
2019-05-02T06:41:03.784Z,-21370.64
2019-05-02T06:43:46.509Z,-21356.84
2019-05-02T06:46:16.555Z,-21356.00
2019-05-02T06:48:48.216Z,-21357.41
2019-05-02T06:51:19.642Z,-21356.14
2019-05-02T06:53:46.956Z,-21348.39
2019-05-02T06:56:19.727Z,-21354.87
2019-05-02T06:58:49.670Z,-21366.84
2019-05-02T07:01:21.413Z,-21372.06
2019-05-02T07:03:51.873Z,-21385.01
2019-05-02T07:06:20.350Z,-21383.46
2019-05-02T07:08:48.939Z,-21385.43
2019-05-02T07:11:17.317Z,-21375.71
2019-05-02T07:13:45.584Z,-21378.53
2019-05-02T07:16:30.295Z,-21375.44
2019-05-02T07:18:49.701Z,-21357.97
2019-05-02T07:21:23.255Z,-21382.19
2019-05-02T07:23:48.608Z,-21380.08
2019-05-02T07:26:21.081Z,-21364.17
2019-05-02T07:28:48.382Z,-21368.25
2019-05-02T07:31:16.667Z,-21372.06
2019-05-02T07:33:53.810Z,-21388.66
2019-05-02T07:36:22.075Z,-21367.69
2019-05-02T07:38:50.376Z,-21377.41
2019-05-02T07:41:18.775Z,-21396.12
2019-05-02T07:43:47.042Z,-21388.66
2019-05-02T07:46:16.141Z,-21398.23
2019-05-02T07:48:48.883Z,-21391.34
2019-05-02T07:51:17.244Z,-21382.61
2019-05-02T07:53:48.560Z,-21407.51
2019-05-02T07:56:17.636Z,-21405.26
2019-05-02T07:58:47.972Z,-21417.91
2019-05-02T08:01:15.624Z,-21427.18
2019-05-02T08:03:44.928Z,-21398.23
2019-05-02T08:06:13.263Z,-21374.17
2019-05-02T08:08:41.554Z,-21410.74
2019-05-02T08:11:09.872Z,-21399.21
2019-05-02T08:13:38.260Z,-21404.13
2019-05-02T08:16:06.611Z,-21407.65
2019-05-02T08:18:34.881Z,-21412.00
2019-05-02T08:21:03.162Z,-21423.53
2019-05-02T08:23:31.421Z,-21418.05
2019-05-02T08:25:59.686Z,-21421.70
2019-05-02T08:28:47.056Z,-21412.29
2019-05-02T08:31:18.863Z,-21420.44
2019-05-02T08:33:44.728Z,-21428.02
2019-05-02T08:36:13.033Z,-21423.11
2019-05-02T08:38:41.297Z,-21421.14
2019-05-02T08:41:09.563Z,-21410.32
2019-05-02T08:43:40.139Z,-21434.76
2019-05-02T08:46:14.457Z,-21398.23
2019-05-02T08:48:43.716Z,-21419.03
2019-05-02T08:51:13.135Z,-21438.27
2019-05-02T08:53:41.392Z,-21444.87
2019-05-02T08:56:09.662Z,-21409.48
2019-05-02T08:58:37.986Z,-21423.95
2019-05-02T09:01:09.260Z,-21429.85
2019-05-02T09:03:54.654Z,-21450.48
2019-05-02T09:06:06.587Z,-21437.00
2019-05-02T09:08:35.415Z,-21439.39
2019-05-02T09:11:03.694Z,-21435.61
2019-05-02T09:13:33.041Z,-21434.20
2019-05-02T09:16:05.658Z,-21443.60
2019-05-02T09:18:38.801Z,-21434.62
2019-05-02T09:21:02.097Z,-21468.43
2019-05-02T09:23:33.151Z,-21466.75
2019-05-02T09:26:08.949Z,-21456.79
2019-05-02T09:29:00.614Z,-21435.74
2019-05-02T09:31:26.132Z,-21455.39
2019-05-02T09:33:55.770Z,-21454.55
2019-05-02T09:36:24.377Z,-21463.38
2019-05-02T09:38:58.522Z,-21475.29
2019-05-02T09:41:32.446Z,-21452.72
2019-05-02T09:43:59.582Z,-21483.84
2019-05-02T09:46:28.906Z,-21464.50
2019-05-02T09:49:01.758Z,-21467.86
2019-05-02T09:51:27.642Z,-21479.91
2019-05-02T09:53:57.083Z,-21446.97
2019-05-02T09:56:27.939Z,-21493.36
2019-05-02T09:59:04.785Z,-21488.74
2019-05-02T10:01:36.283Z,-21464.64
2019-05-02T10:04:05.005Z,-21464.50
2019-05-02T10:06:34.356Z,-21484.82
2019-05-02T10:09:03.734Z,-21487.90
2019-05-02T10:11:33.532Z,-21497.98
2019-05-02T10:14:04.220Z,-21498.11
2019-05-02T10:16:32.850Z,-21495.32
2019-05-02T10:19:09.572Z,-21467.30
2019-05-02T10:21:32.234Z,-21479.91
2019-05-02T10:24:01.858Z,-21517.70
2019-05-02T10:26:32.958Z,-21506.23
2019-05-02T10:29:03.913Z,-21494.48
2019-05-02T10:31:37.304Z,-21517.14
2019-05-02T10:34:02.432Z,-21485.51
2019-05-02T10:36:32.549Z,-21517.14
2019-05-02T10:39:01.787Z,-21516.30
2019-05-02T10:41:33.540Z,-21474.73
2019-05-02T10:44:02.182Z,-21497.55
2019-05-02T10:46:37.406Z,-21540.05
2019-05-02T10:49:03.940Z,-21502.59
2019-05-02T10:51:35.345Z,-21533.77
2019-05-02T10:54:05.169Z,-21529.86
2019-05-02T10:56:33.551Z,-21513.22
2019-05-02T10:59:02.303Z,-21534.33
2019-05-02T11:01:32.401Z,-21511.68
2019-05-02T11:04:04.859Z,-21509.17
2019-05-02T11:06:37.243Z,-21531.54
2019-05-02T11:09:06.304Z,-21508.47
2019-05-02T11:11:33.465Z,-21539.77
2019-05-02T11:14:09.063Z,-21510.43
2019-05-02T11:16:52.462Z,-21520.63
2019-05-02T11:19:38.668Z,-21531.95
2019-05-02T11:22:07.122Z,-21528.46
2019-05-02T11:24:36.336Z,-21512.80
2019-05-02T11:27:04.819Z,-21554.71
2019-05-02T11:29:33.109Z,-21561.68
2019-05-02T11:32:02.781Z,-21548.43
2019-05-02T11:34:32.683Z,-21553.73
2019-05-02T11:37:01.738Z,-21557.50
2019-05-02T11:39:37.328Z,-21597.77
2019-05-02T11:42:02.064Z,-21596.66
2019-05-02T11:44:32.685Z,-21569.63
2019-05-02T11:47:02.007Z,-21613.22
2019-05-02T11:49:32.006Z,-21541.59
2019-05-02T11:52:03.883Z,-21588.73
2019-05-02T11:54:31.959Z,-21611.97
2019-05-02T11:57:02.173Z,-21627.40
2019-05-02T11:59:32.002Z,-21619.76
2019-05-02T12:02:04.620Z,-21632.41
2019-05-02T12:04:32.948Z,-21637.96
2019-05-02T12:07:04.736Z,-21622.82
2019-05-02T12:09:32.188Z,-21597.77
2019-05-02T12:12:04.383Z,-21651.85
2019-05-02T12:14:36.236Z,-21656.43
2019-05-02T12:17:02.758Z,-21629.91
2019-05-02T12:19:32.234Z,-21618.09
2019-05-02T12:22:02.535Z,-21628.66
2019-05-02T12:24:31.951Z,-21694.55
2019-05-02T12:27:02.426Z,-21636.02
2019-05-02T12:29:30.498Z,-21634.35
2019-05-02T12:31:58.781Z,-21646.85
2019-05-02T12:34:27.125Z,-21663.09
2019-05-02T12:36:55.519Z,-21698.43
2019-05-02T12:39:23.863Z,-21668.78
2019-05-02T12:41:53.646Z,-21661.15
2019-05-02T12:44:22.383Z,-21691.92
2019-05-02T12:46:51.761Z,-21728.86
2019-05-02T12:49:25.303Z,-21740.60
2019-05-02T12:51:52.300Z,-21694.14
2019-05-02T12:54:22.311Z,-21681.95
2019-05-02T12:56:52.633Z,-21683.05
2019-05-02T12:59:22.551Z,-21637.41
2019-05-02T13:01:51.856Z,-21631.30
2019-05-02T13:04:22.960Z,-21664.48
2019-05-02T13:06:53.086Z,-21631.16
2019-05-02T13:09:23.409Z,-21668.09
2019-05-02T13:11:56.149Z,-21664.34
2019-05-02T13:14:26.163Z,-21688.32
2019-05-02T13:17:01.524Z,-21709.78
2019-05-02T13:19:37.267Z,-21733.70
2019-05-02T13:22:12.443Z,-21702.59
2019-05-02T13:24:47.000Z,-21765.03
2019-05-02T13:27:16.586Z,-21719.74
2019-05-02T13:29:45.000Z,-21639.77
2019-05-02T13:32:18.940Z,-21626.16
2019-05-02T13:34:57.052Z,-21649.21
2019-05-02T13:37:25.283Z,-21655.74
2019-05-02T13:40:13.162Z,-21631.71
2019-05-02T13:42:41.844Z,-21661.57
2019-05-02T13:45:14.830Z,-21695.25
2019-05-02T13:47:44.126Z,-21695.80
2019-05-02T13:50:12.980Z,-21717.39
2019-05-02T13:52:45.221Z,-21791.07
2019-05-02T13:55:13.126Z,-21814.05
2019-05-02T13:57:46.202Z,-21794.24
2019-05-02T14:00:14.512Z,-21763.37
2019-05-02T14:02:43.374Z,-21745.86
2019-05-02T14:05:14.085Z,-21713.65
2019-05-02T14:07:48.205Z,-21639.50
2019-05-02T14:10:22.884Z,-21644.22
2019-05-02T14:12:53.874Z,-21700.50
2019-05-02T14:15:23.788Z,-21642.41
2019-05-02T14:17:52.579Z,-21637.55
2019-05-02T14:20:22.427Z,-21636.43
2019-05-02T14:22:52.762Z,-21615.86
2019-05-02T14:25:22.338Z,-21593.32
2019-05-02T14:27:53.751Z,-21558.34
2019-05-02T14:30:35.435Z,-21569.08
2019-05-02T14:32:53.170Z,-21593.04
2019-05-02T14:35:28.183Z,-21598.47
2019-05-02T14:38:09.788Z,-21587.89
2019-05-02T14:40:49.023Z,-21589.70
2019-05-02T14:43:37.995Z,-21560.57
2019-05-02T14:46:05.163Z,-21576.46
2019-05-02T14:48:41.601Z,-21595.13
2019-05-02T14:51:12.004Z,-21592.91
2019-05-02T14:53:43.054Z,-21574.37
2019-05-02T14:56:13.031Z,-21554.57
2019-05-02T14:58:42.722Z,-21570.47
2019-05-02T15:01:16.908Z,-21607.38
2019-05-02T15:03:42.318Z,-21584.41
2019-05-02T15:06:11.798Z,-21603.34
2019-05-02T15:08:42.028Z,-21577.02
2019-05-02T15:11:10.043Z,-21598.75
2019-05-02T15:13:40.930Z,-21612.39
2019-05-02T15:16:12.334Z,-21602.93
2019-05-02T15:18:38.587Z,-21589.56
2019-05-02T15:21:12.152Z,-21591.93
2019-05-02T15:23:44.120Z,-21602.51
2019-05-02T15:26:16.162Z,-21586.92
2019-05-02T15:28:44.916Z,-21576.18
2019-05-02T15:31:18.964Z,-21574.65
2019-05-02T15:33:49.155Z,-21576.60
2019-05-02T15:36:17.417Z,-21642.27
2019-05-02T15:38:47.410Z,-21610.45
2019-05-02T15:41:15.871Z,-21623.93
2019-05-02T15:43:49.066Z,-21629.21
2019-05-02T15:46:15.797Z,-21602.23
2019-05-02T15:48:44.531Z,-21583.99
2019-05-02T15:51:13.001Z,-21592.49
2019-05-02T15:53:44.690Z,-21588.73
2019-05-02T15:56:19.914Z,-21567.54
2019-05-02T15:58:43.014Z,-21575.49
2019-05-02T16:01:22.556Z,-21566.57
2019-05-02T16:03:55.172Z,-21554.57
2019-05-02T16:06:30.391Z,-21559.45
2019-05-02T16:08:54.456Z,-21562.10
2019-05-02T16:11:23.071Z,-21557.92
2019-05-02T16:13:55.706Z,-21521.47
2019-05-02T16:16:22.486Z,-21541.17
2019-05-02T16:18:52.583Z,-21545.07
2019-05-02T16:21:28.886Z,-21538.10
2019-05-02T16:24:14.789Z,-21556.94
2019-05-02T16:26:46.796Z,-21541.31
2019-05-02T16:29:23.714Z,-21547.59
2019-05-02T16:31:55.052Z,-21536.56
2019-05-02T16:34:22.610Z,-21538.10
2019-05-02T16:36:52.432Z,-21519.94
2019-05-02T16:39:21.928Z,-21528.04
2019-05-02T16:41:56.009Z,-21533.35
2019-05-02T16:44:24.301Z,-21527.90
2019-05-02T16:46:54.326Z,-21529.44
2019-05-02T17:26:58.707Z,-21550.11
2019-05-02T18:23:05.980Z,-21514.62
2019-05-02T18:25:34.486Z,-21497.55
2019-05-02T18:28:03.854Z,-21497.00
2019-05-02T18:30:32.180Z,-21500.07
2019-05-02T18:33:05.264Z,-21497.69
2019-05-02T18:35:32.560Z,-21487.62
2019-05-02T18:38:02.638Z,-21498.95
2019-05-02T18:40:32.102Z,-21495.46
2019-05-02T18:43:02.003Z,-21487.48
2019-05-02T18:45:31.862Z,-21485.93
2019-05-02T18:48:06.437Z,-21489.72
2019-05-02T18:50:36.920Z,-21482.43
2019-05-02T18:53:07.117Z,-21482.16
2019-05-02T18:55:35.494Z,-21483.84
2019-05-02T18:58:05.513Z,-21486.77
2019-05-02T19:00:38.319Z,-21477.39
2019-05-02T19:03:07.514Z,-21465.90
2019-05-02T19:05:35.660Z,-21463.80
2019-05-02T19:08:04.077Z,-21458.19
2019-05-02T19:10:32.492Z,-21447.53
2019-05-02T19:13:04.423Z,-21437.85
2019-05-02T19:15:34.386Z,-21420.44
2019-05-02T19:18:02.636Z,-21411.16
2019-05-02T19:20:37.098Z,-21437.85
2019-05-02T19:23:05.508Z,-21462.54
2019-05-02T19:25:33.940Z,-21463.94
2019-05-02T19:28:03.853Z,-21427.60
2019-05-02T19:30:33.833Z,-21413.27
2019-05-02T19:33:03.657Z,-21452.86
2019-05-02T19:35:32.772Z,-21452.02
2019-05-02T19:38:02.561Z,-21391.62
2019-05-02T19:40:31.849Z,-21384.30
2019-05-02T19:43:05.911Z,-21383.32
2019-05-02T19:45:32.567Z,-21383.60
2019-05-02T19:48:02.652Z,-21416.36
2019-05-02T19:50:41.587Z,-21402.73
2019-05-02T19:53:14.871Z,-21388.10
2019-05-02T19:55:37.007Z,-21372.62
2019-05-02T19:58:06.525Z,-21386.41
2019-05-02T20:00:36.534Z,-21381.49
2019-05-02T20:03:05.820Z,-21384.86
2019-05-02T20:05:34.411Z,-21392.88
2019-05-02T20:08:02.762Z,-21392.88
2019-05-02T20:10:32.324Z,-21402.31
2019-05-02T20:13:02.911Z,-21404.98
2019-05-02T20:15:33.639Z,-21372.62
2019-05-02T20:18:04.661Z,-21405.82
2019-05-02T20:20:44.739Z,-21407.09
2019-05-02T20:23:17.911Z,-21424.79
2019-05-02T20:25:43.316Z,-21388.52
2019-05-02T20:28:11.933Z,-21367.27
2019-05-02T20:30:42.121Z,-21365.30
2019-05-02T20:33:12.720Z,-21371.21
2019-05-02T20:35:42.182Z,-21366.70
2019-05-02T20:38:11.748Z,-21404.84
2019-05-02T20:40:42.521Z,-21381.91
2019-05-02T20:43:12.148Z,-21384.45
2019-05-02T20:45:40.557Z,-21391.90
2019-05-02T20:48:08.878Z,-21403.43
2019-05-02T20:50:37.184Z,-21404.70
2019-05-02T20:53:05.532Z,-21415.94
2019-05-02T20:55:33.818Z,-21426.20
2019-05-02T20:58:03.022Z,-21425.21
2019-05-02T21:00:32.314Z,-21427.60
2019-05-02T21:03:02.651Z,-21421.99
2019-05-02T21:05:32.697Z,-21423.39
2019-05-02T21:08:19.118Z,-21411.02
2019-05-02T21:10:49.241Z,-21412.14
2019-05-02T21:13:17.597Z,-21413.55
2019-05-02T21:15:46.980Z,-21402.17
2019-05-02T21:18:15.257Z,-21411.30
2019-05-02T21:20:43.527Z,-21399.78
2019-05-02T21:23:12.867Z,-21396.82
2019-05-02T21:25:41.710Z,-21383.32
2019-05-02T21:28:11.835Z,-21389.51
2019-05-02T21:30:41.632Z,-21396.54
2019-05-02T21:33:38.384Z,-21392.60
2019-05-02T21:36:07.045Z,-21394.71
2019-05-02T21:38:35.367Z,-21389.36
2019-05-02T21:41:06.603Z,-21394.29
2019-05-02T21:43:35.897Z,-21381.49
2019-05-02T21:46:06.254Z,-21384.02
2019-05-02T21:48:34.508Z,-21373.75
2019-05-02T21:51:13.101Z,-21353.46
2019-05-02T21:53:54.966Z,-21368.96
2019-05-02T21:56:32.308Z,-21378.11
2019-05-02T21:59:08.069Z,-21378.25
2019-05-02T22:01:43.921Z,-21378.39
2019-05-02T22:04:13.085Z,-21382.75
2019-05-02T22:06:42.717Z,-21352.05
2019-05-02T22:09:12.270Z,-21361.91
2019-05-02T22:11:42.926Z,-21345.86
2019-05-02T22:14:13.380Z,-21363.61
2019-05-02T22:16:42.061Z,-21354.03
2019-05-02T22:19:10.590Z,-21363.32
2019-05-02T22:21:38.979Z,-21362.34
2019-05-02T22:24:11.168Z,-21372.20
2019-05-02T22:26:37.343Z,-21362.76
2019-05-02T22:29:05.635Z,-21379.94
2019-05-02T22:31:34.039Z,-21375.02
2019-05-02T22:34:02.445Z,-21367.13
2019-05-02T22:36:32.462Z,-21372.34
2019-05-02T22:39:02.462Z,-21375.15
2019-05-02T22:41:32.537Z,-21371.21
2019-05-02T22:44:01.948Z,-21369.94
2019-05-02T22:46:43.800Z,-21379.38
2019-05-02T22:49:14.616Z,-21368.11
2019-05-02T22:51:43.479Z,-21373.18
2019-05-02T22:54:24.114Z,-21368.82
2019-05-02T22:56:42.649Z,-21365.30
2019-05-02T22:59:10.984Z,-21361.77
2019-05-02T23:01:39.324Z,-21356.56
2019-05-02T23:04:07.594Z,-21362.06
2019-05-02T23:06:36.794Z,-21360.65
2019-05-02T23:09:07.214Z,-21356.28
2019-05-02T23:11:35.644Z,-21369.52
2019-05-02T23:14:04.642Z,-21364.59
2019-05-02T23:16:34.603Z,-21354.59
2019-05-02T23:19:03.229Z,-21357.27
2019-05-02T23:21:32.501Z,-21359.38
2019-05-02T23:24:02.660Z,-21357.12
2019-05-02T23:26:35.359Z,-21366.70
2019-05-02T23:29:05.355Z,-21354.03
2019-05-02T23:31:33.619Z,-21349.23
2019-05-02T23:34:02.238Z,-21360.51
2019-05-02T23:36:32.603Z,-21368.39
2019-05-02T23:39:01.923Z,-21369.38
2019-05-02T23:41:30.393Z,-21352.90
2019-05-02T23:43:58.819Z,-21371.35
2019-05-02T23:46:27.077Z,-21370.08
2019-05-02T23:48:56.360Z,-21345.71
2019-05-02T23:51:24.669Z,-21353.46
2019-05-02T23:53:53.044Z,-21366.98
2019-05-02T23:56:22.104Z,-21344.58
2019-05-02T23:58:51.990Z,-21352.76
